Time;durP1;ratioP1;P1;durP2;ratioP2;P2;SDS_P1;SDS_P2;PMS_P1;PMS_P2;Temp;Humidity;BMP_temperature;BMP_pressure;BME280_temperature;BME280_humidity;BME280_pressure;Samples;Min_cycle;Max_cycle;Signal;HPM_P1;HPM_P2
2021/11/14 00:01:39;;;;;;;89.07;35.22;;;11.90;85.40;;;;;;4997083;28;92540;-74
2021/11/14 00:04:07;;;;;;;110.38;39.00;;;11.90;85.50;;;;;;4995285;28;95579;-74
2021/11/14 00:06:37;;;;;;;89.60;35.55;;;11.90;85.50;;;;;;4996440;28;96487;-74
2021/11/14 00:09:05;;;;;;;88.43;35.83;;;11.90;85.60;;;;;;4997724;28;92488;-74
2021/11/14 00:11:32;;;;;;;88.20;34.80;;;11.90;85.70;;;;;;4997055;28;92559;-74
2021/11/14 00:13:59;;;;;;;80.60;35.00;;;11.90;85.70;;;;;;4996746;28;93122;-74
2021/11/14 00:16:27;;;;;;;75.32;33.53;;;11.90;85.60;;;;;;4997826;28;92900;-74
2021/11/14 00:18:55;;;;;;;82.40;36.38;;;11.90;85.70;;;;;;4997631;28;101512;-74
2021/11/14 00:21:24;;;;;;;65.63;31.92;;;11.90;85.70;;;;;;4998010;28;92055;-74
2021/11/14 00:23:51;;;;;;;84.07;34.08;;;11.90;85.80;;;;;;4980099;28;93122;-74
2021/11/14 00:26:19;;;;;;;76.18;32.88;;;11.90;85.80;;;;;;4997644;28;93347;-74
2021/11/14 00:28:47;;;;;;;70.15;33.88;;;11.90;85.70;;;;;;4996629;28;94755;-74
2021/11/14 00:31:19;;;;;;;73.93;32.42;;;11.90;85.70;;;;;;4996145;28;92586;-74
2021/11/14 00:33:50;;;;;;;54.50;28.88;;;11.90;85.50;;;;;;4997668;28;93078;-74
2021/11/14 00:36:21;;;;;;;61.85;29.52;;;11.90;85.60;;;;;;4995951;28;95693;-74
2021/11/14 00:38:50;;;;;;;60.72;29.95;;;11.90;85.50;;;;;;4998177;28;92798;-74
2021/11/14 00:41:18;;;;;;;60.00;29.33;;;11.90;85.50;;;;;;4996882;28;100842;-74
2021/11/14 00:43:45;;;;;;;51.65;27.95;;;11.80;85.40;;;;;;4996345;28;93158;-74
2021/11/14 00:46:14;;;;;;;56.83;28.27;;;11.80;85.30;;;;;;4997114;28;92834;-74
2021/11/14 00:48:42;;;;;;;52.90;29.80;;;11.80;85.30;;;;;;4997554;28;92525;-74
2021/11/14 00:51:15;;;;;;;61.75;29.98;;;11.90;85.40;;;;;;4996289;28;92469;-74
2021/11/14 00:53:42;;;;;;;55.92;29.25;;;11.90;85.30;;;;;;4996072;28;95616;-74
2021/11/14 00:56:09;;;;;;;59.50;28.73;;;11.90;85.20;;;;;;4997215;28;95550;-74
2021/11/14 00:58:36;;;;;;;54.05;29.50;;;11.90;85.10;;;;;;4996168;28;93126;-74
2021/11/14 01:01:03;;;;;;;54.03;28.13;;;11.90;85.20;;;;;;4997506;28;92441;-74
2021/11/14 01:03:31;;;;;;;49.25;28.38;;;11.90;85.00;;;;;;4996956;28;93165;-74
2021/11/14 01:05:58;;;;;;;54.63;29.85;;;11.90;85.00;;;;;;4996049;28;92907;-74
2021/11/14 01:08:28;;;;;;;60.50;30.40;;;11.90;85.00;;;;;;4996913;28;92366;-74
2021/11/14 01:10:59;;;;;;;55.53;30.13;;;11.90;85.20;;;;;;4997409;28;91724;-74
2021/11/14 01:13:26;;;;;;;56.45;29.77;;;11.90;85.20;;;;;;4997053;28;93130;-74
2021/11/14 01:15:53;;;;;;;56.13;28.02;;;11.90;85.10;;;;;;4995318;28;95628;-74
2021/11/14 01:18:21;;;;;;;50.60;28.50;;;11.90;85.10;;;;;;4995707;28;95273;-74
2021/11/14 01:20:55;;;;;;;58.65;29.85;;;11.90;85.00;;;;;;4997096;28;92482;-74
2021/11/14 01:23:23;;;;;;;50.65;27.90;;;11.90;84.90;;;;;;4996699;28;92893;-74
2021/11/14 01:25:52;;;;;;;49.08;27.08;;;11.90;84.90;;;;;;4995686;28;92966;-74
2021/11/14 01:28:19;;;;;;;54.65;28.50;;;11.90;84.90;;;;;;4996437;28;92788;-74
2021/11/14 01:30:50;;;;;;;45.63;26.95;;;11.90;84.80;;;;;;4996964;28;92452;-74
2021/11/14 01:33:18;;;;;;;51.35;28.88;;;11.90;84.80;;;;;;4996288;28;93123;-74
2021/11/14 01:35:46;;;;;;;46.05;28.63;;;11.80;84.90;;;;;;4997160;28;92952;-74
2021/11/14 01:38:13;;;;;;;43.25;26.48;;;11.90;84.80;;;;;;4995515;28;92475;-74
2021/11/14 01:40:44;;;;;;;41.75;27.13;;;11.80;84.60;;;;;;4995235;28;92447;-74
2021/11/14 01:43:14;;;;;;;41.80;27.65;;;11.80;84.30;;;;;;4995513;28;95474;-74
2021/11/14 01:45:43;;;;;;;37.10;23.90;;;11.80;84.30;;;;;;4996182;28;98218;-74
2021/11/14 01:48:10;;;;;;;38.15;25.52;;;11.70;84.00;;;;;;4995385;28;92538;-74
2021/11/14 01:50:38;;;;;;;40.05;27.13;;;11.70;84.20;;;;;;4994726;28;92448;-74
2021/11/14 01:53:06;;;;;;;42.50;26.45;;;11.70;84.30;;;;;;4994900;28;96102;-74
2021/11/14 01:55:35;;;;;;;40.80;26.85;;;11.70;84.20;;;;;;4996091;28;92882;-74
2021/11/14 01:58:03;;;;;;;43.72;26.90;;;11.70;84.20;;;;;;4994699;28;108429;-74
2021/11/14 02:00:43;;;;;;;41.58;26.10;;;11.60;84.30;;;;;;4996673;28;91738;-74
2021/11/14 02:03:10;;;;;;;49.60;29.83;;;11.60;84.30;;;;;;4996328;28;93075;-74
2021/11/14 02:05:37;;;;;;;57.13;31.48;;;11.50;84.30;;;;;;4995861;28;92879;-74
2021/11/14 02:08:07;;;;;;;51.65;29.27;;;11.50;84.30;;;;;;4995215;28;94881;-74
2021/11/14 02:10:35;;;;;;;49.90;29.40;;;11.50;84.90;;;;;;4994471;28;92412;-74
2021/11/14 02:13:05;;;;;;;50.80;29.00;;;11.50;84.30;;;;;;4996344;28;93116;-74
2021/11/14 02:15:32;;;;;;;54.90;29.52;;;11.40;84.50;;;;;;4994175;28;95960;-74
2021/11/14 02:18:00;;;;;;;50.42;27.70;;;11.30;84.60;;;;;;4996157;28;92542;-74
2021/11/14 02:20:27;;;;;;;48.30;28.02;;;11.40;84.70;;;;;;4994794;28;105903;-74
2021/11/14 02:22:54;;;;;;;52.90;28.92;;;11.40;84.70;;;;;;4994980;28;93035;-74
2021/11/14 02:25:22;;;;;;;55.15;30.02;;;11.30;84.60;;;;;;4995880;28;97177;-74
2021/11/14 02:27:53;;;;;;;54.20;28.67;;;11.40;84.70;;;;;;4994674;28;92727;-74
2021/11/14 02:30:22;;;;;;;51.45;27.67;;;11.40;84.70;;;;;;4994751;28;92422;-74
2021/11/14 02:32:51;;;;;;;63.65;31.02;;;11.40;84.70;;;;;;4994389;28;95511;-74
2021/11/14 02:35:37;;;;;;;60.22;30.45;;;11.40;84.70;;;;;;4995605;28;95215;-74
2021/11/14 02:38:04;;;;;;;55.55;28.88;;;11.40;84.60;;;;;;4995893;28;92457;-74
2021/11/14 02:40:31;;;;;;;67.65;31.95;;;11.40;84.70;;;;;;4995508;28;92496;-74
2021/11/14 02:42:58;;;;;;;62.33;30.23;;;11.30;84.80;;;;;;4995707;28;93154;-74
2021/11/14 02:45:27;;;;;;;60.17;28.52;;;11.30;84.90;;;;;;4994862;28;92923;-74
2021/11/14 02:47:55;;;;;;;59.00;29.27;;;11.30;85.00;;;;;;4994326;28;92533;-74
2021/11/14 02:50:24;;;;;;;67.32;31.75;;;11.30;85.10;;;;;;4994459;28;91828;-74
2021/11/14 02:52:52;;;;;;;68.35;30.70;;;11.30;85.10;;;;;;4977797;28;92615;-74
2021/11/14 02:55:24;;;;;;;66.72;31.48;;;11.30;85.00;;;;;;4993945;28;93166;-74
2021/11/14 02:57:52;;;;;;;65.30;29.95;;;11.30;84.90;;;;;;4992984;28;95003;-74
2021/11/14 03:00:30;;;;;;;68.82;31.10;;;11.30;84.80;;;;;;4995225;28;92450;-74
2021/11/14 03:02:58;;;;;;;73.60;31.27;;;11.40;84.80;;;;;;4995434;28;93135;-74
2021/11/14 03:05:25;;;;;;;69.55;32.22;;;11.30;84.90;;;;;;4993072;28;92929;-74
2021/11/14 03:07:53;;;;;;;61.80;29.30;;;11.30;84.90;;;;;;4974094;28;92536;-74
2021/11/14 03:10:26;;;;;;;61.70;28.95;;;11.30;84.80;;;;;;4975463;28;92889;-74
2021/11/14 03:12:53;;;;;;;64.75;30.05;;;11.30;84.90;;;;;;4974258;28;92962;-74
2021/11/14 03:15:20;;;;;;;62.47;29.73;;;11.30;84.80;;;;;;4975135;28;110416;-74
2021/11/14 03:17:47;;;;;;;61.13;29.85;;;11.30;84.80;;;;;;4973998;28;92572;-74
2021/11/14 03:20:14;;;;;;;62.92;29.33;;;11.30;84.80;;;;;;4974022;28;92568;-74
2021/11/14 03:22:41;;;;;;;61.65;29.45;;;11.30;84.70;;;;;;4955976;28;96653;-74
2021/11/14 03:25:08;;;;;;;63.10;29.77;;;11.30;84.70;;;;;;4974626;28;95378;-74
2021/11/14 03:27:35;;;;;;;65.90;30.05;;;11.30;84.70;;;;;;4975117;28;92893;-74
2021/11/14 03:30:05;;;;;;;56.53;28.02;;;11.30;84.50;;;;;;4973667;28;92461;-74
2021/11/14 03:32:32;;;;;;;60.88;27.98;;;11.20;84.40;;;;;;4974906;28;93074;-74
2021/11/14 03:34:59;;;;;;;55.47;27.40;;;11.20;84.50;;;;;;4974985;28;92901;-74
2021/11/14 03:37:26;;;;;;;58.88;27.15;;;11.20;84.60;;;;;;4974683;28;102147;-74
2021/11/14 03:39:52;;;;;;;61.15;28.88;;;11.20;84.70;;;;;;4975057;28;91751;-74
2021/11/14 03:42:19;;;;;;;58.13;28.13;;;11.30;84.70;;;;;;4973680;28;97823;-74
2021/11/14 03:44:46;;;;;;;55.75;27.40;;;11.30;84.60;;;;;;4957066;28;92869;-73
2021/11/14 03:47:14;;;;;;;57.28;27.45;;;11.30;84.50;;;;;;4972246;28;95046;-74
2021/11/14 03:49:41;;;;;;;52.63;27.08;;;11.30;84.50;;;;;;4973489;28;92478;-74
2021/11/14 03:52:10;;;;;;;51.15;26.23;;;11.20;84.40;;;;;;4973811;28;92984;-74
2021/11/14 03:54:38;;;;;;;52.63;26.13;;;11.30;84.50;;;;;;4974552;28;92912;-74
2021/11/14 03:57:24;;;;;;;63.33;28.33;;;11.30;84.60;;;;;;4975155;28;92505;-74
2021/11/14 03:59:51;;;;;;;51.22;26.95;;;11.20;84.50;;;;;;4974812;28;92527;-74
2021/11/14 04:02:18;;;;;;;59.15;28.73;;;11.20;84.60;;;;;;4974742;28;93216;-74
2021/11/14 04:04:45;;;;;;;54.63;26.23;;;11.20;84.80;;;;;;4972555;28;104532;-74
2021/11/14 04:07:13;;;;;;;62.20;27.85;;;11.20;84.80;;;;;;4975042;28;92462;-74
2021/11/14 04:09:40;;;;;;;57.28;26.92;;;11.20;85.50;;;;;;4973330;28;92454;-74
2021/11/14 04:12:07;;;;;;;55.08;26.15;;;11.20;85.00;;;;;;4973396;28;95338;-74
2021/11/14 04:14:34;;;;;;;56.70;26.67;;;11.20;84.80;;;;;;4973067;28;95732;-74
2021/11/14 04:17:01;;;;;;;58.88;26.90;;;11.20;84.80;;;;;;4974841;28;92467;-74
2021/11/14 04:19:28;;;;;;;62.88;27.85;;;11.20;84.70;;;;;;4973278;28;92521;-74
2021/11/14 04:21:55;;;;;;;65.03;27.45;;;11.20;84.70;;;;;;4973047;28;92992;-74
2021/11/14 04:24:22;;;;;;;58.63;27.73;;;11.20;84.80;;;;;;4974444;28;92802;-74
2021/11/14 04:26:49;;;;;;;58.85;26.98;;;11.20;84.70;;;;;;4973123;28;92533;-74
2021/11/14 04:29:16;;;;;;;59.60;26.60;;;11.20;84.60;;;;;;4974134;28;108229;-74
2021/11/14 04:31:43;;;;;;;59.78;27.40;;;11.10;84.70;;;;;;4974243;28;93061;-74
2021/11/14 04:34:10;;;;;;;54.47;24.52;;;11.10;84.70;;;;;;4974278;28;92845;-74
2021/11/14 04:36:37;;;;;;;47.20;23.88;;;11.10;84.80;;;;;;4973324;28;94866;-74
2021/11/14 04:39:05;;;;;;;51.03;23.13;;;11.10;84.70;;;;;;4974155;28;94580;-74
2021/11/14 04:41:32;;;;;;;50.72;24.75;;;11.10;84.80;;;;;;4972968;28;94122;-74
2021/11/14 04:43:59;;;;;;;59.50;25.83;;;11.10;84.60;;;;;;4973680;28;111590;-74
2021/11/14 04:46:26;;;;;;;53.03;24.42;;;11.10;84.60;;;;;;4976333;28;92428;-74
2021/11/14 04:48:53;;;;;;;50.63;24.27;;;11.10;84.40;;;;;;4977504;28;92865;-74
2021/11/14 04:51:20;;;;;;;54.72;27.80;;;11.10;84.30;;;;;;4977525;28;93110;-74
2021/11/14 04:53:47;;;;;;;53.03;25.02;;;11.10;84.30;;;;;;4977693;28;92890;-74
2021/11/14 04:56:15;;;;;;;51.65;24.73;;;11.00;84.30;;;;;;4977622;28;92432;-74
2021/11/14 04:58:42;;;;;;;46.40;21.88;;;11.00;84.50;;;;;;4975947;28;92481;-74
2021/11/14 05:01:09;;;;;;;48.33;23.75;;;10.90;84.60;;;;;;4974344;28;100217;-74
2021/11/14 05:03:36;;;;;;;54.60;25.60;;;10.90;84.80;;;;;;4977127;28;95400;-74
2021/11/14 05:06:04;;;;;;;54.92;25.58;;;10.90;84.70;;;;;;4959857;28;92512;-74
2021/11/14 05:08:31;;;;;;;45.38;23.80;;;10.90;84.80;;;;;;4975890;28;97835;-74
2021/11/14 05:10:58;;;;;;;48.83;25.38;;;10.90;84.60;;;;;;4975440;28;99925;-74
2021/11/14 05:13:26;;;;;;;46.97;22.52;;;10.90;84.50;;;;;;4975794;28;94265;-74
2021/11/14 05:15:53;;;;;;;43.30;21.08;;;10.90;84.50;;;;;;4975837;28;92542;-74
2021/11/14 05:18:20;;;;;;;40.38;22.85;;;10.90;84.60;;;;;;4977837;28;92102;-74
2021/11/14 05:20:47;;;;;;;40.25;22.60;;;10.90;84.50;;;;;;4975360;28;94347;-74
2021/11/14 05:23:16;;;;;;;36.80;20.92;;;10.90;84.30;;;;;;4975579;28;92797;-74
2021/11/14 05:25:44;;;;;;;37.25;20.55;;;10.90;84.20;;;;;;4975516;28;95314;-74
2021/11/14 05:28:11;;;;;;;37.95;19.95;;;10.90;84.10;;;;;;4975468;28;92502;-74
2021/11/14 05:30:38;;;;;;;36.70;20.67;;;10.90;84.10;;;;;;4976561;28;103914;-74
2021/11/14 05:33:05;;;;;;;35.15;19.75;;;10.90;83.90;;;;;;4976589;28;92914;-74
2021/11/14 05:35:33;;;;;;;34.45;20.25;;;10.80;83.80;;;;;;4976830;28;92426;-74
2021/11/14 05:38:00;;;;;;;34.85;20.40;;;10.80;84.00;;;;;;4975085;28;92865;-74
2021/11/14 05:40:27;;;;;;;36.53;19.83;;;10.80;83.80;;;;;;4976808;28;92982;-74
2021/11/14 05:42:54;;;;;;;33.05;18.65;;;10.80;83.80;;;;;;4976572;28;92914;-74
2021/11/14 05:45:21;;;;;;;32.10;18.02;;;10.80;84.00;;;;;;4975198;28;92583;-74
2021/11/14 05:47:48;;;;;;;32.13;18.92;;;10.80;84.10;;;;;;4975040;28;92469;-74
2021/11/14 05:50:15;;;;;;;32.13;18.00;;;10.80;84.30;;;;;;4975276;28;95341;-74
2021/11/14 05:52:42;;;;;;;38.60;19.85;;;10.80;84.30;;;;;;4975276;28;95304;-74
2021/11/14 05:55:11;;;;;;;47.88;23.35;;;10.80;84.20;;;;;;4974705;28;100484;-74
2021/11/14 05:57:52;;;;;;;37.92;19.80;;;10.80;84.30;;;;;;4975324;28;92445;-74
2021/11/14 06:00:28;;;;;;;36.45;19.83;;;10.80;84.50;;;;;;4976444;28;93127;-74
2021/11/14 06:03:05;;;;;;;41.25;20.35;;;10.80;84.40;;;;;;4975163;28;92897;-74
2021/11/14 06:05:38;;;;;;;38.65;18.70;;;10.80;84.30;;;;;;4975739;28;95844;-74
2021/11/14 06:08:07;;;;;;;33.35;19.10;;;10.80;84.30;;;;;;4959949;28;92156;-74
2021/11/14 06:10:34;;;;;;;33.03;18.45;;;10.70;83.90;;;;;;4976243;28;92428;-74
2021/11/14 06:13:01;;;;;;;32.28;17.70;;;10.70;84.00;;;;;;4976034;28;93259;-74
2021/11/14 06:15:29;;;;;;;34.60;17.90;;;10.70;84.10;;;;;;4975102;28;94738;-74
2021/11/14 06:17:56;;;;;;;35.15;18.30;;;10.70;84.20;;;;;;4976008;28;92415;-74
2021/11/14 06:20:23;;;;;;;35.28;18.77;;;10.70;84.60;;;;;;4975306;28;109025;-74
2021/11/14 06:22:50;;;;;;;32.95;18.02;;;10.70;84.00;;;;;;4975596;28;97416;-74
2021/11/14 06:25:17;;;;;;;32.95;17.48;;;10.70;83.90;;;;;;4975965;28;92388;-74
2021/11/14 06:27:45;;;;;;;32.88;17.92;;;10.70;84.00;;;;;;4974894;28;92460;-74
2021/11/14 06:30:14;;;;;;;32.20;17.23;;;10.70;83.90;;;;;;4975693;28;95120;-74
2021/11/14 06:32:41;;;;;;;32.35;17.48;;;10.70;84.00;;;;;;4976186;28;92927;-74
2021/11/14 06:35:09;;;;;;;37.67;18.45;;;10.70;84.00;;;;;;4975744;28;92443;-74
2021/11/14 06:37:36;;;;;;;37.88;19.38;;;10.70;83.80;;;;;;4975966;28;92490;-74
2021/11/14 06:40:05;;;;;;;43.65;20.70;;;10.70;83.80;;;;;;4972788;28;96605;-74
2021/11/14 06:42:32;;;;;;;38.58;19.15;;;10.70;83.90;;;;;;4975057;28;108957;-74
2021/11/14 06:45:00;;;;;;;37.92;18.20;;;10.60;84.00;;;;;;4957397;28;96700;-74
2021/11/14 06:47:27;;;;;;;40.47;19.35;;;10.60;84.20;;;;;;4975759;28;92340;-74
2021/11/14 06:49:54;;;;;;;42.40;19.45;;;10.60;84.40;;;;;;4974087;28;94110;-74
2021/11/14 06:52:22;;;;;;;36.95;17.38;;;10.60;84.30;;;;;;4975533;28;92925;-74
2021/11/14 06:54:52;;;;;;;41.33;18.98;;;10.60;84.20;;;;;;4975714;28;92362;-74
2021/11/14 06:57:20;;;;;;;38.80;17.30;;;10.60;84.20;;;;;;4974433;28;95080;-74
2021/11/14 06:59:48;;;;;;;38.53;17.58;;;10.60;84.00;;;;;;4975517;28;93174;-74
2021/11/14 07:02:15;;;;;;;34.60;17.35;;;10.60;84.00;;;;;;4957915;28;92897;-74
2021/11/14 07:04:42;;;;;;;37.85;19.17;;;10.60;84.00;;;;;;4974303;28;94815;-74
2021/11/14 07:07:09;;;;;;;42.03;19.17;;;10.60;84.10;;;;;;4975094;28;96554;-74
2021/11/14 07:09:36;;;;;;;36.38;18.17;;;10.60;84.00;;;;;;4974946;28;93189;-74
2021/11/14 07:12:04;;;;;;;41.05;19.17;;;10.60;84.20;;;;;;4973927;28;92947;-74
2021/11/14 07:14:31;;;;;;;34.15;17.15;;;10.60;83.90;;;;;;4975460;28;92818;-74
2021/11/14 07:16:58;;;;;;;35.70;17.98;;;10.60;83.80;;;;;;4973922;28;92507;-74
2021/11/14 07:19:25;;;;;;;38.22;18.45;;;10.60;83.60;;;;;;4958040;28;92919;-74
2021/11/14 07:21:53;;;;;;;35.75;19.05;;;10.60;84.20;;;;;;4975609;28;92933;-74
2021/11/14 07:24:20;;;;;;;34.65;18.88;;;10.60;83.60;;;;;;4975067;28;92452;-74
2021/11/14 07:26:47;;;;;;;37.92;18.67;;;10.60;83.70;;;;;;4974136;28;92635;-74
2021/11/14 07:29:15;;;;;;;40.20;19.98;;;10.60;83.60;;;;;;4973544;28;95386;-74
2021/11/14 07:31:42;;;;;;;34.97;19.30;;;10.60;83.60;;;;;;4973510;28;100749;-74
2021/11/14 07:34:09;;;;;;;36.33;18.80;;;10.60;83.30;;;;;;4975075;28;92452;-74
2021/11/14 07:36:36;;;;;;;37.50;18.20;;;10.60;83.30;;;;;;4975351;28;92477;-74
2021/11/14 07:39:04;;;;;;;36.30;19.48;;;10.60;83.40;;;;;;4973771;28;93087;-74
2021/11/14 07:41:31;;;;;;;40.30;20.15;;;10.70;83.30;;;;;;4973504;28;94147;-74
2021/11/14 07:43:58;;;;;;;39.25;19.95;;;10.60;83.10;;;;;;4975036;28;92353;-74
2021/11/14 07:46:26;;;;;;;36.83;20.20;;;10.60;83.10;;;;;;4973577;28;91731;-74
2021/11/14 07:48:55;;;;;;;31.15;19.08;;;10.70;83.10;;;;;;4974919;28;93005;-74
2021/11/14 07:51:27;;;;;;;38.28;21.17;;;10.70;83.00;;;;;;4975275;28;92898;-74
2021/11/14 07:53:54;;;;;;;35.63;20.50;;;10.70;82.90;;;;;;4973785;28;94873;-74
2021/11/14 07:56:21;;;;;;;39.00;21.13;;;10.70;82.90;;;;;;4956547;28;103433;-74
2021/11/14 07:58:48;;;;;;;43.53;22.25;;;10.70;82.80;;;;;;4989780;28;93066;-74
2021/11/14 08:01:15;;;;;;;37.63;22.05;;;10.70;82.70;;;;;;4993204;28;92954;-74
2021/11/14 08:03:42;;;;;;;40.70;22.48;;;10.80;82.70;;;;;;4994486;28;92617;-70
2021/11/14 08:06:11;;;;;;;38.10;21.77;;;10.80;82.50;;;;;;4994474;28;92503;-70
2021/11/14 08:08:40;;;;;;;37.20;22.50;;;10.80;82.60;;;;;;4993211;28;93105;-70
2021/11/14 08:11:07;;;;;;;43.00;22.63;;;10.80;82.40;;;;;;4994601;28;92944;-71
2021/11/14 08:13:34;;;;;;;36.00;21.63;;;10.80;82.50;;;;;;4993575;28;92837;-70
2021/11/14 08:16:01;;;;;;;38.90;21.88;;;10.90;82.20;;;;;;4993209;28;92501;-70
2021/11/14 08:18:28;;;;;;;38.28;21.35;;;10.90;82.20;;;;;;4991736;28;96731;-70
2021/11/14 08:20:55;;;;;;;36.95;21.70;;;11.00;82.10;;;;;;4994774;28;95151;-70
2021/11/14 08:23:22;;;;;;;35.47;20.58;;;11.00;81.80;;;;;;4997284;28;101389;-70
2021/11/14 08:25:50;;;;;;;37.33;20.65;;;11.00;81.90;;;;;;4997739;28;92519;-70
2021/11/14 08:28:17;;;;;;;38.58;22.02;;;11.00;81.80;;;;;;4997436;28;93046;-71
2021/11/14 08:30:44;;;;;;;37.88;20.05;;;11.10;81.70;;;;;;4996403;28;94001;-70
2021/11/14 08:33:33;;;;;;;34.38;20.45;;;11.10;81.50;;;;;;4997743;28;92381;-70
2021/11/14 08:36:00;;;;;;;33.53;21.55;;;11.10;81.40;;;;;;4997931;28;91753;-70
2021/11/14 08:38:28;;;;;;;33.20;20.15;;;11.20;81.20;;;;;;4997361;28;93249;-70
2021/11/14 08:40:56;;;;;;;36.13;21.08;;;11.20;81.10;;;;;;4997401;28;98740;-70
2021/11/14 08:43:23;;;;;;;38.15;21.25;;;11.20;80.90;;;;;;4996399;28;95739;-70
2021/11/14 08:45:51;;;;;;;36.40;21.83;;;11.20;80.50;;;;;;4997437;28;94311;-70
2021/11/14 08:48:22;;;;;;;37.03;20.75;;;11.30;80.70;;;;;;5012240;28;94308;-70
2021/11/14 08:50:49;;;;;;;38.25;20.50;;;11.30;80.80;;;;;;4997491;28;92882;-71
2021/11/14 08:53:16;;;;;;;37.25;20.98;;;11.30;80.70;;;;;;4996110;28;92513;-70
2021/11/14 08:55:43;;;;;;;35.00;22.42;;;11.30;80.70;;;;;;4996437;28;92517;-70
2021/11/14 08:58:28;;;;;;;39.95;21.80;;;11.30;81.00;;;;;;4981615;28;94255;-70
2021/11/14 09:00:56;;;;;;;37.88;20.67;;;11.40;80.20;;;;;;4995967;28;94021;-70
2021/11/14 09:03:23;;;;;;;36.20;22.40;;;11.30;80.20;;;;;;4979317;28;92491;-70
2021/11/14 09:05:50;;;;;;;38.17;23.48;;;11.30;80.20;;;;;;4996150;28;92917;-70
2021/11/14 09:08:17;;;;;;;33.17;21.40;;;11.40;80.20;;;;;;4995714;28;95470;-71
2021/11/14 09:10:44;;;;;;;36.78;21.80;;;11.40;80.20;;;;;;4996720;28;95269;-71
2021/11/14 09:13:13;;;;;;;37.75;21.23;;;11.40;79.90;;;;;;4996175;28;92422;-70
2021/11/14 09:15:40;;;;;;;37.72;21.92;;;11.40;79.70;;;;;;4996593;28;92447;-70
2021/11/14 09:18:16;;;;;;;39.83;22.27;;;11.40;79.80;;;;;;4996037;28;93180;-70
2021/11/14 09:20:44;;;;;;;37.50;20.83;;;11.40;79.70;;;;;;4996120;28;93114;-70
2021/11/14 09:23:12;;;;;;;33.05;21.35;;;11.40;79.60;;;;;;4996858;28;92453;-70
2021/11/14 09:25:40;;;;;;;41.28;21.73;;;11.50;80.00;;;;;;4997511;28;91719;-71
2021/11/14 09:28:11;;;;;;;38.97;23.25;;;11.50;79.80;;;;;;4996386;28;93696;-70
2021/11/14 09:30:42;;;;;;;39.15;22.02;;;11.50;79.70;;;;;;4996785;28;92987;-70
2021/11/14 09:33:11;;;;;;;36.78;22.42;;;11.50;79.80;;;;;;4995614;28;94937;-70
2021/11/14 09:35:38;;;;;;;39.33;21.65;;;11.60;79.80;;;;;;4995536;28;92889;-70
2021/11/14 09:38:06;;;;;;;38.25;20.80;;;11.60;79.40;;;;;;4995519;28;94121;-70
2021/11/14 09:40:34;;;;;;;41.72;23.38;;;11.50;79.50;;;;;;4994517;28;107884;-70
2021/11/14 09:43:02;;;;;;;35.10;22.10;;;11.60;79.70;;;;;;4996722;28;92374;-70
2021/11/14 09:45:31;;;;;;;39.97;22.25;;;11.60;79.50;;;;;;4995781;28;92437;-71
2021/11/14 09:47:59;;;;;;;43.10;22.67;;;11.70;79.20;;;;;;4995588;28;92950;-70
2021/11/14 09:50:28;;;;;;;35.92;19.75;;;11.70;78.90;;;;;;4996525;28;92866;-70
2021/11/14 09:52:57;;;;;;;39.50;23.38;;;11.80;78.60;;;;;;4995365;28;92916;-71
2021/11/14 09:55:25;;;;;;;37.78;20.30;;;11.80;78.10;;;;;;4996008;28;92414;-70
2021/11/14 09:57:53;;;;;;;41.30;24.25;;;11.80;78.10;;;;;;4993742;28;95486;-70
2021/11/14 10:00:25;;;;;;;38.63;22.77;;;11.80;78.40;;;;;;4994889;28;94088;-70
2021/11/14 10:02:52;;;;;;;39.33;20.75;;;11.80;78.60;;;;;;4994953;28;92461;-70
2021/11/14 10:05:19;;;;;;;35.47;21.40;;;11.80;78.30;;;;;;4995936;28;92598;-71
2021/11/14 10:07:54;;;;;;;38.65;23.05;;;11.80;78.00;;;;;;4995400;28;109496;-70
2021/11/14 10:10:25;;;;;;;36.35;21.02;;;11.90;77.90;;;;;;4994778;28;92886;-70
2021/11/14 10:13:15;;;;;;;33.22;20.95;;;11.90;77.90;;;;;;4996599;28;92801;-70
2021/11/14 10:15:45;;;;;;;37.53;22.48;;;12.00;77.90;;;;;;5011514;28;91770;-71
2021/11/14 10:18:12;;;;;;;38.50;23.17;;;12.00;77.80;;;;;;4995742;28;93099;-70
2021/11/14 10:20:40;;;;;;;42.90;23.38;;;12.00;78.00;;;;;;4994375;28;96670;-70
2021/11/14 10:23:13;;;;;;;47.13;26.05;;;12.00;77.60;;;;;;4994705;28;94843;-70
2021/11/14 10:25:41;;;;;;;;;;;12.00;77.80;;;;;;4995018;28;92506;-70
2021/11/14 10:28:08;;;;;;;46.33;25.85;;;11.90;78.00;;;;;;4996159;28;93030;-71
2021/11/14 10:30:39;;;;;;;45.90;27.02;;;11.90;78.40;;;;;;4995409;28;93152;-70
2021/11/14 10:33:10;;;;;;;54.38;27.98;;;11.80;78.40;;;;;;5011103;28;92631;-70
2021/11/14 10:35:39;;;;;;;51.58;27.52;;;11.70;78.70;;;;;;4995913;28;92337;-70
2021/11/14 10:38:10;;;;;;;51.42;28.77;;;11.80;78.90;;;;;;4995572;28;93087;-71
2021/11/14 10:40:45;;;;;;;49.25;26.75;;;11.80;78.70;;;;;;4995902;28;92903;-70
2021/11/14 10:43:12;;;;;;;48.58;26.13;;;11.80;78.60;;;;;;4995116;28;92439;-70
2021/11/14 10:45:41;;;;;;;47.75;27.58;;;11.80;78.50;;;;;;4988225;28;95126;-70
2021/11/14 10:48:20;;;;;;;49.20;25.15;;;11.80;79.00;;;;;;4974404;28;95462;-71
2021/11/14 10:50:52;;;;;;;49.70;25.52;;;11.90;78.20;;;;;;4975407;28;95168;-70
2021/11/14 10:53:22;;;;;;;50.33;29.50;;;11.90;78.40;;;;;;4975950;28;92509;-71
2021/11/14 10:55:55;;;;;;;49.83;28.53;;;11.90;78.20;;;;;;4975671;28;92433;-71
2021/11/14 10:58:24;;;;;;;48.58;26.27;;;11.90;78.10;;;;;;4957770;28;95019;-70
2021/11/14 11:00:58;;;;;;;52.17;28.25;;;11.90;78.20;;;;;;4975338;28;92888;-70
2021/11/14 11:03:35;;;;;;;48.92;26.98;;;11.90;78.40;;;;;;4974236;28;92485;-70
2021/11/14 11:06:05;;;;;;;49.90;26.33;;;11.90;78.40;;;;;;4975003;28;92123;-70
2021/11/14 11:08:33;;;;;;;48.58;27.27;;;11.90;77.90;;;;;;4975024;28;93175;-71
2021/11/14 11:11:07;;;;;;;49.42;27.75;;;11.90;77.50;;;;;;4974420;28;92947;-71
2021/11/14 11:13:45;;;;;;;48.22;26.88;;;11.90;77.60;;;;;;4973641;28;101094;-70
2021/11/14 11:16:22;;;;;;;50.60;28.27;;;12.00;78.10;;;;;;4975675;28;92461;-71
2021/11/14 11:18:56;;;;;;;43.88;25.20;;;12.00;77.70;;;;;;4974838;28;93058;-71
2021/11/14 11:21:31;;;;;;;45.35;25.48;;;12.10;77.30;;;;;;4974181;28;92841;-70
2021/11/14 11:24:18;;;;;;;43.92;25.00;;;12.10;77.70;;;;;;4975695;28;92343;-71
2021/11/14 11:27:06;;;;;;;38.75;22.50;;;12.10;76.60;;;;;;4975145;28;92577;-70
2021/11/14 11:29:35;;;;;;;45.92;26.00;;;12.20;76.60;;;;;;4975081;28;93015;-70
2021/11/14 11:32:03;;;;;;;38.00;23.75;;;12.10;76.60;;;;;;4990610;28;94095;-70
2021/11/14 11:34:30;;;;;;;40.13;24.83;;;12.20;77.40;;;;;;4989566;28;109708;-70
2021/11/14 11:36:58;;;;;;;40.88;24.77;;;12.20;76.70;;;;;;4975391;28;92456;-70
2021/11/14 11:39:26;;;;;;;36.83;22.48;;;12.20;76.40;;;;;;4972763;28;95383;-70
2021/11/14 11:41:55;;;;;;;38.22;23.00;;;12.30;76.00;;;;;;4989844;28;96384;-70
2021/11/14 11:44:25;;;;;;;36.55;22.75;;;12.30;75.90;;;;;;4975448;28;92470;-71
2021/11/14 11:46:56;;;;;;;42.10;25.33;;;12.20;76.10;;;;;;4990051;28;93384;-70
2021/11/14 11:49:44;;;;;;;43.85;25.65;;;12.30;76.40;;;;;;4994652;28;93222;-70
2021/11/14 11:52:21;;;;;;;47.20;27.65;;;12.30;76.40;;;;;;4994448;28;92954;-70
2021/11/14 11:54:50;;;;;;;49.50;29.02;;;12.30;76.50;;;;;;4993143;28;92628;-70
2021/11/14 11:57:19;;;;;;;44.35;25.45;;;12.30;76.40;;;;;;4998609;28;91693;-70
2021/11/14 12:00:02;;;;;;;46.70;25.95;;;12.30;76.20;;;;;;4996781;28;94139;-70
2021/11/14 12:02:39;;;;;;;45.60;27.38;;;12.30;76.60;;;;;;4995384;28;92764;-71
2021/11/14 12:05:15;;;;;;;41.85;26.13;;;12.30;76.50;;;;;;4997082;28;94893;-70
2021/11/14 12:07:49;;;;;;;43.63;25.80;;;12.30;76.30;;;;;;4998289;28;92487;-70
2021/11/14 12:10:25;;;;;;;45.85;27.50;;;12.40;76.40;;;;;;4998302;28;93033;-71
2021/11/14 12:13:02;;;;;;;45.97;25.85;;;12.40;76.30;;;;;;4997789;28;92873;-71
2021/11/14 12:15:38;;;;;;;43.83;26.65;;;12.40;76.00;;;;;;4998099;28;92434;-70
2021/11/14 12:18:10;;;;;;;43.08;25.80;;;12.40;76.30;;;;;;4998398;28;92790;-71
2021/11/14 12:20:40;;;;;;;46.60;26.83;;;12.40;76.20;;;;;;4997774;28;93197;-70
2021/11/14 12:23:20;;;;;;;42.80;27.48;;;12.30;76.20;;;;;;4996835;28;92745;-70
2021/11/14 12:25:50;;;;;;;42.85;25.13;;;12.40;76.10;;;;;;4997744;28;92779;-70
2021/11/14 12:28:20;;;;;;;39.55;25.83;;;12.40;76.40;;;;;;4996216;28;99724;-70
2021/11/14 12:30:59;;;;;;;42.00;25.20;;;12.40;76.40;;;;;;4996189;28;96454;-70
2021/11/14 12:33:28;;;;;;;43.00;25.40;;;12.50;76.20;;;;;;4997727;28;97524;-71
2021/11/14 12:36:09;;;;;;;41.55;27.17;;;12.40;76.00;;;;;;4997315;28;92960;-70